TimeAKST,TemperatureF,Dew PointF,Humidity,Sea Level PressureIn,VisibilityMPH,Wind Direction,Wind SpeedMPH,Gust SpeedMPH,PrecipitationIn,Events,Conditions,WindDirDegrees,DateUTC
12:53 AM,19.9,18.0,92,30.06,0.2,Calm,Calm,-,N/A,Fog,Light Freezing Fog,0,2012-11-13 09:53:00
1:27 AM,19.4,17.6,93,30.03,0.2,Calm,Calm,-,N/A,Fog,Light Freezing Fog,0,2012-11-13 10:27:00
1:46 AM,21.2,19.4,93,30.03,0.2,Calm,Calm,-,N/A,Fog,Light Freezing Fog,0,2012-11-13 10:46:00
1:53 AM,23.0,19.9,88,30.04,0.2,WNW,3.5,-,N/A,Fog,Light Freezing Fog,290,2012-11-13 10:53:00
2:06 AM,21.2,19.4,93,30.04,0.2,West,4.6,-,N/A,Fog,Light Freezing Fog,270,2012-11-13 11:06:00
3:53 AM,21.0,19.0,92,30.02,0.2,Calm,Calm,-,N/A,Fog,Light Freezing Fog,0,2012-11-13 12:53:00
4:53 AM,23.0,21.0,92,30.02,0.2,Calm,Calm,-,N/A,Fog,Light Freezing Fog,0,2012-11-13 13:53:00
5:53 AM,25.0,21.9,88,30.02,0.2,Calm,Calm,-,N/A,Fog,Light Freezing Fog,0,2012-11-13 14:53:00
6:33 AM,24.8,21.2,86,30.00,0.2,NNW,4.6,-,N/A,Fog,Light Freezing Fog,340,2012-11-13 15:33:00
6:53 AM,24.1,21.9,91,30.00,0.2,Calm,Calm,-,N/A,Fog,Light Freezing Fog,0,2012-11-13 15:53:00
7:26 AM,26.6,23.0,86,29.99,0.5,NNW,3.5,-,N/A,Fog,Light Freezing Fog,330,2012-11-13 16:26:00
7:49 AM,23.0,19.4,86,30.00,1.0,NNW,9.2,-,N/A,,Overcast,340,2012-11-13 16:49:00
7:53 AM,21.9,19.0,89,30.01,1.0,North,8.1,-,N/A,,Overcast,350,2012-11-13 16:53:00
7:56 AM,21.2,19.4,93,30.00,2.0,North,6.9,-,N/A,,Overcast,350,2012-11-13 16:56:00
8:25 AM,23.0,21.2,93,29.99,1.0,Calm,Calm,-,N/A,,Overcast,0,2012-11-13 17:25:00
8:29 AM,24.8,21.2,86,29.99,0.8,Calm,Calm,-,N/A,,Overcast,0,2012-11-13 17:29:00
8:53 AM,24.1,21.0,88,29.99,0.8,NNE,3.5,-,N/A,,Overcast,20,2012-11-13 17:53:00
9:29 AM,24.8,21.2,86,29.98,0.2,NE,3.5,-,N/A,Fog,Light Freezing Fog,40,2012-11-13 18:29:00
9:41 AM,24.8,21.2,86,29.97,0.5,North,5.8,-,N/A,Fog,Light Freezing Fog,10,2012-11-13 18:41:00
9:51 AM,24.8,21.2,86,29.98,1.0,North,4.6,-,N/A,,Overcast,360,2012-11-13 18:51:00
9:53 AM,24.1,21.0,88,29.99,2.0,North,5.8,-,N/A,,Overcast,360,2012-11-13 18:53:00
9:55 AM,24.8,21.2,86,29.98,3.0,North,6.9,-,N/A,,Overcast,360,2012-11-13 18:55:00
10:25 AM,23.0,19.4,86,29.97,7.0,North,4.6,-,N/A,,Overcast,10,2012-11-13 19:25:00
10:53 AM,23.0,19.0,85,29.98,7.0,Calm,Calm,-,N/A,,Overcast,0,2012-11-13 19:53:00
11:09 AM,23.0,19.4,86,29.96,10.0,Calm,Calm,-,N/A,,Overcast,0,2012-11-13 20:09:00
11:53 AM,24.1,21.0,88,29.95,10.0,Calm,Calm,-,N/A,,Overcast,0,2012-11-13 20:53:00
12:18 PM,24.8,21.2,86,29.94,10.0,NNW,6.9,-,N/A,,Overcast,330,2012-11-13 21:18:00
12:53 PM,23.0,19.0,85,29.94,10.0,North,9.2,-,N/A,,Overcast,350,2012-11-13 21:53:00
1:20 PM,23.0,19.4,86,29.91,10.0,NNE,4.6,-,N/A,,Overcast,30,2012-11-13 22:20:00
1:53 PM,23.0,19.9,88,29.91,10.0,North,5.8,-,N/A,,Overcast,350,2012-11-13 22:53:00
2:53 PM,24.1,19.9,84,29.89,10.0,NNE,3.5,-,N/A,,Overcast,20,2012-11-13 23:53:00
3:53 PM,21.9,17.1,82,29.87,10.0,NNE,6.9,-,N/A,,Overcast,20,2012-11-14 00:53:00
4:53 PM,24.1,17.1,75,29.84,10.0,North,4.6,-,N/A,,Overcast,10,2012-11-14 01:53:00
5:53 PM,24.1,19.9,84,29.81,10.0,Calm,Calm,-,N/A,,Overcast,0,2012-11-14 02:53:00
6:53 PM,24.1,18.0,77,29.78,10.0,NE,4.6,-,N/A,,Overcast,40,2012-11-14 03:53:00
7:53 PM,23.0,17.1,78,29.76,5.0,North,9.2,-,0.00,Snow,Light Snow,10,2012-11-14 04:53:00
8:02 PM,23.0,17.6,80,29.75,2.0,North,5.8,-,0.01,Snow,Light Snow,10,2012-11-14 05:02:00
8:14 PM,23.0,17.6,80,29.74,1.5,NE,5.8,-,0.01,Snow,Light Snow,40,2012-11-14 05:14:00
8:38 PM,23.0,17.6,80,29.73,2.0,NNE,4.6,-,0.01,Snow,Light Snow,30,2012-11-14 05:38:00
8:53 PM,23.0,18.0,81,29.74,2.0,NNE,6.9,-,0.02,Snow,Light Snow,20,2012-11-14 05:53:00
9:32 PM,23.0,19.4,86,29.71,4.0,North,6.9,-,0.01,Snow,Light Snow,10,2012-11-14 06:32:00
9:53 PM,24.1,19.9,84,29.71,5.0,North,8.1,-,0.01,Snow,Light Snow,350,2012-11-14 06:53:00
10:14 PM,23.0,19.4,86,29.70,2.0,North,5.8,-,0.01,Snow,Light Snow,360,2012-11-14 07:14:00
10:27 PM,23.0,19.4,86,29.69,1.5,North,6.9,-,0.02,Snow,Light Snow,350,2012-11-14 07:27:00
10:53 PM,23.0,19.9,88,29.69,1.5,North,8.1,-,0.03,Snow,Light Snow,350,2012-11-14 07:53:00
11:42 PM,24.8,21.2,86,29.66,2.0,NNW,4.6,-,0.02,Snow,Light Snow,340,2012-11-14 08:42:00
11:53 PM,24.1,21.0,88,29.67,3.0,NNW,6.9,-,0.02,Snow,Light Snow,340,2012-11-14 08:53:00